sensor_id;sensor_type;location;lat;lon;timestamp;temperature;humidity
65836;SHT30;52595;51.608;7.216;2023-05-10T00:01:01;12.93;99.30
65836;SHT30;52595;51.608;7.216;2023-05-10T00:03:26;12.93;99.29
65836;SHT30;52595;51.608;7.216;2023-05-10T00:05:52;12.93;99.24
65836;SHT30;52595;51.608;7.216;2023-05-10T00:08:17;12.92;99.21
65836;SHT30;52595;51.608;7.216;2023-05-10T00:10:43;12.87;99.21
65836;SHT30;52595;51.608;7.216;2023-05-10T00:13:08;12.92;99.25
65836;SHT30;52595;51.608;7.216;2023-05-10T00:15:34;12.89;99.30
65836;SHT30;52595;51.608;7.216;2023-05-10T00:18:00;12.92;99.42
65836;SHT30;52595;51.608;7.216;2023-05-10T00:20:25;12.93;99.39
65836;SHT30;52595;51.608;7.216;2023-05-10T00:22:51;12.94;99.41
65836;SHT30;52595;51.608;7.216;2023-05-10T00:25:16;12.94;99.54
65836;SHT30;52595;51.608;7.216;2023-05-10T00:27:42;12.93;99.44
65836;SHT30;52595;51.608;7.216;2023-05-10T00:30:07;12.93;99.53
65836;SHT30;52595;51.608;7.216;2023-05-10T00:32:33;12.93;99.47
65836;SHT30;52595;51.608;7.216;2023-05-10T00:34:58;12.90;99.36
65836;SHT30;52595;51.608;7.216;2023-05-10T00:37:24;12.86;99.53
65836;SHT30;52595;51.608;7.216;2023-05-10T00:39:49;12.86;99.37
65836;SHT30;52595;51.608;7.216;2023-05-10T00:42:15;12.83;99.49
65836;SHT30;52595;51.608;7.216;2023-05-10T00:44:40;12.84;99.24
65836;SHT30;52595;51.608;7.216;2023-05-10T00:47:06;12.83;99.23
65836;SHT30;52595;51.608;7.216;2023-05-10T00:49:31;12.82;99.38
65836;SHT30;52595;51.608;7.216;2023-05-10T00:51:57;12.84;99.33
65836;SHT30;52595;51.608;7.216;2023-05-10T00:54:23;12.84;99.31
65836;SHT30;52595;51.608;7.216;2023-05-10T00:56:48;12.86;99.36
65836;SHT30;52595;51.608;7.216;2023-05-10T00:59:18;12.90;99.55
65836;SHT30;52595;51.608;7.216;2023-05-10T01:01:47;12.92;99.65
65836;SHT30;52595;51.608;7.216;2023-05-10T01:04:13;12.92;99.63
65836;SHT30;52595;51.608;7.216;2023-05-10T01:06:39;12.93;99.63
65836;SHT30;52595;51.608;7.216;2023-05-10T01:12:52;12.90;99.61
65836;SHT30;52595;51.608;7.216;2023-05-10T01:15:17;12.89;99.65
65836;SHT30;52595;51.608;7.216;2023-05-10T01:17:44;12.87;99.58
65836;SHT30;52595;51.608;7.216;2023-05-10T01:20:12;12.80;99.39
65836;SHT30;52595;51.608;7.216;2023-05-10T01:31:40;12.67;99.47
65836;SHT30;52595;51.608;7.216;2023-05-10T01:34:16;12.69;99.43
65836;SHT30;52595;51.608;7.216;2023-05-10T01:44:31;12.38;99.03
65836;SHT30;52595;51.608;7.216;2023-05-10T01:47:07;12.28;99.00
65836;SHT30;52595;51.608;7.216;2023-05-10T01:49:38;12.19;98.84
65836;SHT30;52595;51.608;7.216;2023-05-10T01:52:12;12.18;99.04
65836;SHT30;52595;51.608;7.216;2023-05-10T01:54:42;12.18;99.25
65836;SHT30;52595;51.608;7.216;2023-05-10T01:57:10;12.17;99.43
65836;SHT30;52595;51.608;7.216;2023-05-10T01:59:39;12.17;99.55
65836;SHT30;52595;51.608;7.216;2023-05-10T02:02:10;12.11;99.17
65836;SHT30;52595;51.608;7.216;2023-05-10T02:04:39;12.02;99.03
65836;SHT30;52595;51.608;7.216;2023-05-10T02:07:06;11.99;99.24
65836;SHT30;52595;51.608;7.216;2023-05-10T02:09:33;12.01;99.24
65836;SHT30;52595;51.608;7.216;2023-05-10T02:12:01;11.98;99.44
65836;SHT30;52595;51.608;7.216;2023-05-10T02:14:29;12.01;99.43
65836;SHT30;52595;51.608;7.216;2023-05-10T02:16:56;11.99;99.53
65836;SHT30;52595;51.608;7.216;2023-05-10T02:19:23;11.97;99.49
65836;SHT30;52595;51.608;7.216;2023-05-10T02:21:50;11.95;99.47
65836;SHT30;52595;51.608;7.216;2023-05-10T02:24:17;11.94;99.57
65836;SHT30;52595;51.608;7.216;2023-05-10T02:26:44;11.92;99.77
65836;SHT30;52595;51.608;7.216;2023-05-10T02:29:11;11.92;99.73
65836;SHT30;52595;51.608;7.216;2023-05-10T02:31:38;11.94;99.89
65836;SHT30;52595;51.608;7.216;2023-05-10T02:34:04;11.91;99.93
65836;SHT30;52595;51.608;7.216;2023-05-10T02:36:32;11.88;99.97
65836;SHT30;52595;51.608;7.216;2023-05-10T02:38:59;11.87;99.98
65836;SHT30;52595;51.608;7.216;2023-05-10T02:41:27;11.91;99.97
65836;SHT30;52595;51.608;7.216;2023-05-10T02:43:56;11.91;99.89
65836;SHT30;52595;51.608;7.216;2023-05-10T02:46:23;11.88;99.87
65836;SHT30;52595;51.608;7.216;2023-05-10T02:48:48;11.87;99.78
65836;SHT30;52595;51.608;7.216;2023-05-10T02:51:15;11.84;99.92
65836;SHT30;52595;51.608;7.216;2023-05-10T02:53:43;11.89;99.98
65836;SHT30;52595;51.608;7.216;2023-05-10T02:56:14;11.91;99.81
65836;SHT30;52595;51.608;7.216;2023-05-10T02:58:40;11.89;99.79
65836;SHT30;52595;51.608;7.216;2023-05-10T03:01:06;11.88;99.64
65836;SHT30;52595;51.608;7.216;2023-05-10T03:03:33;11.91;99.70
65836;SHT30;52595;51.608;7.216;2023-05-10T03:05:58;11.92;99.64
65836;SHT30;52595;51.608;7.216;2023-05-10T03:08:24;11.89;99.71
65836;SHT30;52595;51.608;7.216;2023-05-10T03:14:02;11.97;99.74
65836;SHT30;52595;51.608;7.216;2023-05-10T03:16:45;11.95;99.66
65836;SHT30;52595;51.608;7.216;2023-05-10T03:19:17;11.97;99.79
65836;SHT30;52595;51.608;7.216;2023-05-10T03:21:49;11.97;99.81
65836;SHT30;52595;51.608;7.216;2023-05-10T03:24:16;12.01;99.78
65836;SHT30;52595;51.608;7.216;2023-05-10T03:26:44;12.02;99.85
65836;SHT30;52595;51.608;7.216;2023-05-10T03:29:12;12.06;99.88
65836;SHT30;52595;51.608;7.216;2023-05-10T03:31:39;12.08;99.98
65836;SHT30;52595;51.608;7.216;2023-05-10T03:34:04;12.12;99.99
65836;SHT30;52595;51.608;7.216;2023-05-10T03:36:31;12.15;99.97
65836;SHT30;52595;51.608;7.216;2023-05-10T03:38:56;12.15;99.99
65836;SHT30;52595;51.608;7.216;2023-05-10T03:41:22;12.18;99.91
65836;SHT30;52595;51.608;7.216;2023-05-10T03:43:47;12.21;99.89
65836;SHT30;52595;51.608;7.216;2023-05-10T03:46:12;12.19;99.83
65836;SHT30;52595;51.608;7.216;2023-05-10T03:48:38;12.18;99.83
65836;SHT30;52595;51.608;7.216;2023-05-10T03:51:03;12.17;99.94
65836;SHT30;52595;51.608;7.216;2023-05-10T03:53:28;12.22;99.90
65836;SHT30;52595;51.608;7.216;2023-05-10T03:55:54;12.21;99.80
65836;SHT30;52595;51.608;7.216;2023-05-10T03:58:19;12.18;99.82
65836;SHT30;52595;51.608;7.216;2023-05-10T04:00:45;12.22;99.84
65836;SHT30;52595;51.608;7.216;2023-05-10T04:03:13;12.22;99.75
65836;SHT30;52595;51.608;7.216;2023-05-10T04:05:39;12.24;99.78
65836;SHT30;52595;51.608;7.216;2023-05-10T04:08:05;12.24;99.75
65836;SHT30;52595;51.608;7.216;2023-05-10T04:10:31;12.25;99.81
65836;SHT30;52595;51.608;7.216;2023-05-10T04:12:56;12.25;99.67
65836;SHT30;52595;51.608;7.216;2023-05-10T04:15:22;12.25;99.73
65836;SHT30;52595;51.608;7.216;2023-05-10T04:17:47;12.26;99.80
65836;SHT30;52595;51.608;7.216;2023-05-10T04:20:13;12.30;99.92
65836;SHT30;52595;51.608;7.216;2023-05-10T04:22:38;12.32;99.91
65836;SHT30;52595;51.608;7.216;2023-05-10T04:25:04;12.28;99.76
65836;SHT30;52595;51.608;7.216;2023-05-10T04:27:30;12.28;99.78
65836;SHT30;52595;51.608;7.216;2023-05-10T04:29:56;12.29;99.74
65836;SHT30;52595;51.608;7.216;2023-05-10T04:32:21;12.32;99.83
65836;SHT30;52595;51.608;7.216;2023-05-10T04:34:47;12.35;99.79
65836;SHT30;52595;51.608;7.216;2023-05-10T04:37:12;12.35;99.68
65836;SHT30;52595;51.608;7.216;2023-05-10T04:39:37;12.36;99.73
65836;SHT30;52595;51.608;7.216;2023-05-10T04:42:03;12.42;99.81
65836;SHT30;52595;51.608;7.216;2023-05-10T04:44:31;12.42;99.74
65836;SHT30;52595;51.608;7.216;2023-05-10T04:46:56;12.40;99.69
65836;SHT30;52595;51.608;7.216;2023-05-10T04:49:21;12.43;99.71
65836;SHT30;52595;51.608;7.216;2023-05-10T04:51:47;12.43;99.74
65836;SHT30;52595;51.608;7.216;2023-05-10T04:54:13;12.46;99.76
65836;SHT30;52595;51.608;7.216;2023-05-10T04:56:38;12.49;99.68
65836;SHT30;52595;51.608;7.216;2023-05-10T04:59:03;12.48;99.62
65836;SHT30;52595;51.608;7.216;2023-05-10T05:01:29;12.53;99.54
65836;SHT30;52595;51.608;7.216;2023-05-10T05:03:54;12.52;99.57
65836;SHT30;52595;51.608;7.216;2023-05-10T05:06:20;12.53;99.52
65836;SHT30;52595;51.608;7.216;2023-05-10T05:08:49;12.55;99.57
65836;SHT30;52595;51.608;7.216;2023-05-10T05:11:15;12.59;99.45
65836;SHT30;52595;51.608;7.216;2023-05-10T05:13:40;12.53;99.31
65836;SHT30;52595;51.608;7.216;2023-05-10T05:16:06;12.57;99.40
65836;SHT30;52595;51.608;7.216;2023-05-10T05:18:31;12.57;99.27
65836;SHT30;52595;51.608;7.216;2023-05-10T05:20:57;12.60;99.16
65836;SHT30;52595;51.608;7.216;2023-05-10T05:23:22;12.64;99.20
65836;SHT30;52595;51.608;7.216;2023-05-10T05:25:51;12.64;99.09
65836;SHT30;52595;51.608;7.216;2023-05-10T05:28:17;12.66;99.04
65836;SHT30;52595;51.608;7.216;2023-05-10T05:30:42;12.64;99.06
65836;SHT30;52595;51.608;7.216;2023-05-10T05:33:07;12.66;98.92
65836;SHT30;52595;51.608;7.216;2023-05-10T05:35:33;12.70;98.87
65836;SHT30;52595;51.608;7.216;2023-05-10T05:37:58;12.70;98.96
65836;SHT30;52595;51.608;7.216;2023-05-10T05:40:24;12.70;98.90
65836;SHT30;52595;51.608;7.216;2023-05-10T05:42:49;12.72;98.95
65836;SHT30;52595;51.608;7.216;2023-05-10T05:45:14;12.72;98.98
65836;SHT30;52595;51.608;7.216;2023-05-10T05:47:40;12.70;98.78
65836;SHT30;52595;51.608;7.216;2023-05-10T05:50:06;12.72;98.99
65836;SHT30;52595;51.608;7.216;2023-05-10T05:52:32;12.70;98.73
65836;SHT30;52595;51.608;7.216;2023-05-10T05:54:57;12.70;98.71
65836;SHT30;52595;51.608;7.216;2023-05-10T05:57:23;12.66;98.68
65836;SHT30;52595;51.608;7.216;2023-05-10T05:59:48;12.67;98.76
65836;SHT30;52595;51.608;7.216;2023-05-10T06:02:13;12.66;98.71
65836;SHT30;52595;51.608;7.216;2023-05-10T06:04:39;12.66;98.72
65836;SHT30;52595;51.608;7.216;2023-05-10T06:07:04;12.76;98.83
65836;SHT30;52595;51.608;7.216;2023-05-10T06:09:30;12.76;98.52
65836;SHT30;52595;51.608;7.216;2023-05-10T06:11:55;12.73;98.54
65836;SHT30;52595;51.608;7.216;2023-05-10T06:14:21;12.82;98.62
65836;SHT30;52595;51.608;7.216;2023-05-10T06:16:47;12.80;98.48
65836;SHT30;52595;51.608;7.216;2023-05-10T06:19:12;12.82;98.51
65836;SHT30;52595;51.608;7.216;2023-05-10T06:21:38;12.77;98.37
65836;SHT30;52595;51.608;7.216;2023-05-10T06:24:03;12.82;98.37
65836;SHT30;52595;51.608;7.216;2023-05-10T06:26:29;12.84;98.36
65836;SHT30;52595;51.608;7.216;2023-05-10T06:28:54;12.87;98.37
65836;SHT30;52595;51.608;7.216;2023-05-10T06:31:19;12.89;98.15
65836;SHT30;52595;51.608;7.216;2023-05-10T06:33:46;13.02;98.11
65836;SHT30;52595;51.608;7.216;2023-05-10T06:36:11;13.21;97.92
65836;SHT30;52595;51.608;7.216;2023-05-10T06:38:36;13.34;97.41
65836;SHT30;52595;51.608;7.216;2023-05-10T06:41:02;13.44;96.93
65836;SHT30;52595;51.608;7.216;2023-05-10T06:43:27;13.43;96.71
65836;SHT30;52595;51.608;7.216;2023-05-10T06:45:53;13.45;96.61
65836;SHT30;52595;51.608;7.216;2023-05-10T06:48:19;13.31;96.35
65836;SHT30;52595;51.608;7.216;2023-05-10T06:50:44;13.31;96.57
65836;SHT30;52595;51.608;7.216;2023-05-10T06:53:10;13.34;96.33
65836;SHT30;52595;51.608;7.216;2023-05-10T06:55:36;13.55;96.58
65836;SHT30;52595;51.608;7.216;2023-05-10T06:58:02;13.58;95.90
65836;SHT30;52595;51.608;7.216;2023-05-10T07:00:27;13.74;96.13
65836;SHT30;52595;51.608;7.216;2023-05-10T07:02:53;13.79;95.56
65836;SHT30;52595;51.608;7.216;2023-05-10T07:05:18;13.88;95.51
65836;SHT30;52595;51.608;7.216;2023-05-10T07:07:43;14.06;95.35
65836;SHT30;52595;51.608;7.216;2023-05-10T07:10:09;14.19;95.27
65836;SHT30;52595;51.608;7.216;2023-05-10T07:12:34;14.26;95.16
65836;SHT30;52595;51.608;7.216;2023-05-10T07:15:00;14.28;95.30
65836;SHT30;52595;51.608;7.216;2023-05-10T07:17:25;14.23;94.64
65836;SHT30;52595;51.608;7.216;2023-05-10T07:19:51;14.33;94.88
65836;SHT30;52595;51.608;7.216;2023-05-10T07:22:17;14.36;94.61
65836;SHT30;52595;51.608;7.216;2023-05-10T07:24:42;14.42;93.96
65836;SHT30;52595;51.608;7.216;2023-05-10T07:27:07;14.33;93.17
65836;SHT30;52595;51.608;7.216;2023-05-10T07:29:34;14.56;93.77
65836;SHT30;52595;51.608;7.216;2023-05-10T07:32:00;14.66;94.03
65836;SHT30;52595;51.608;7.216;2023-05-10T07:34:25;14.80;93.47
65836;SHT30;52595;51.608;7.216;2023-05-10T07:36:51;15.04;92.88
65836;SHT30;52595;51.608;7.216;2023-05-10T07:39:16;15.07;92.14
65836;SHT30;52595;51.608;7.216;2023-05-10T07:41:42;15.07;91.80
65836;SHT30;52595;51.608;7.216;2023-05-10T07:44:07;15.18;91.52
65836;SHT30;52595;51.608;7.216;2023-05-10T07:46:32;15.14;90.84
65836;SHT30;52595;51.608;7.216;2023-05-10T07:48:58;15.17;89.89
65836;SHT30;52595;51.608;7.216;2023-05-10T07:51:23;15.10;89.95
65836;SHT30;52595;51.608;7.216;2023-05-10T07:53:49;15.28;90.90
65836;SHT30;52595;51.608;7.216;2023-05-10T07:56:25;15.23;90.06
65836;SHT30;52595;51.608;7.216;2023-05-10T07:58:53;15.12;90.41
65836;SHT30;52595;51.608;7.216;2023-05-10T08:01:19;15.23;90.87
65836;SHT30;52595;51.608;7.216;2023-05-10T08:03:44;15.14;90.98
65836;SHT30;52595;51.608;7.216;2023-05-10T08:06:10;15.01;90.55
65836;SHT30;52595;51.608;7.216;2023-05-10T08:08:36;15.24;90.24
65836;SHT30;52595;51.608;7.216;2023-05-10T08:11:01;15.49;89.70
65836;SHT30;52595;51.608;7.216;2023-05-10T08:13:27;15.66;89.08
65836;SHT30;52595;51.608;7.216;2023-05-10T08:15:52;15.72;88.82
65836;SHT30;52595;51.608;7.216;2023-05-10T08:18:18;15.85;89.51
65836;SHT30;52595;51.608;7.216;2023-05-10T08:20:44;15.98;88.42
65836;SHT30;52595;51.608;7.216;2023-05-10T08:23:09;15.79;88.33
65836;SHT30;52595;51.608;7.216;2023-05-10T08:25:35;16.03;88.52
65836;SHT30;52595;51.608;7.216;2023-05-10T08:28:00;16.05;88.09
65836;SHT30;52595;51.608;7.216;2023-05-10T08:30:25;16.02;87.86
65836;SHT30;52595;51.608;7.216;2023-05-10T08:32:51;16.17;88.01
65836;SHT30;52595;51.608;7.216;2023-05-10T08:35:16;15.93;87.26
65836;SHT30;52595;51.608;7.216;2023-05-10T08:37:41;15.62;87.83
65836;SHT30;52595;51.608;7.216;2023-05-10T08:40:08;15.62;88.73
65836;SHT30;52595;51.608;7.216;2023-05-10T08:42:36;15.51;87.94
65836;SHT30;52595;51.608;7.216;2023-05-10T08:45:09;15.63;88.56
65836;SHT30;52595;51.608;7.216;2023-05-10T08:47:36;15.42;88.35
65836;SHT30;52595;51.608;7.216;2023-05-10T08:50:03;15.55;88.77
65836;SHT30;52595;51.608;7.216;2023-05-10T08:52:30;15.69;88.83
65836;SHT30;52595;51.608;7.216;2023-05-10T08:54:56;15.75;88.47
65836;SHT30;52595;51.608;7.216;2023-05-10T08:57:22;15.72;88.22
65836;SHT30;52595;51.608;7.216;2023-05-10T08:59:47;15.51;88.17
65836;SHT30;52595;51.608;7.216;2023-05-10T09:02:13;15.47;88.38
65836;SHT30;52595;51.608;7.216;2023-05-10T09:04:39;15.30;88.12
65836;SHT30;52595;51.608;7.216;2023-05-10T09:07:05;15.30;88.79
65836;SHT30;52595;51.608;7.216;2023-05-10T09:09:31;15.52;88.88
65836;SHT30;52595;51.608;7.216;2023-05-10T09:11:56;15.59;87.29
65836;SHT30;52595;51.608;7.216;2023-05-10T09:14:23;16.10;87.27
65836;SHT30;52595;51.608;7.216;2023-05-10T09:16:50;16.78;86.66
65836;SHT30;52595;51.608;7.216;2023-05-10T09:19:15;16.53;84.61
65836;SHT30;52595;51.608;7.216;2023-05-10T09:21:41;16.42;85.32
65836;SHT30;52595;51.608;7.216;2023-05-10T09:24:07;16.63;85.38
65836;SHT30;52595;51.608;7.216;2023-05-10T09:26:33;16.83;84.40
65836;SHT30;52595;51.608;7.216;2023-05-10T09:29:00;17.24;82.88
65836;SHT30;52595;51.608;7.216;2023-05-10T09:31:48;17.14;83.44
65836;SHT30;52595;51.608;7.216;2023-05-10T09:34:20;17.22;82.53
65836;SHT30;52595;51.608;7.216;2023-05-10T09:37:04;17.35;82.71
65836;SHT30;52595;51.608;7.216;2023-05-10T09:39:30;17.22;81.82
65836;SHT30;52595;51.608;7.216;2023-05-10T09:41:58;17.22;81.78
65836;SHT30;52595;51.608;7.216;2023-05-10T09:44:25;16.92;83.17
65836;SHT30;52595;51.608;7.216;2023-05-10T09:46:51;17.22;83.01
65836;SHT30;52595;51.608;7.216;2023-05-10T09:49:18;17.53;81.78
65836;SHT30;52595;51.608;7.216;2023-05-10T09:51:44;17.53;82.25
65836;SHT30;52595;51.608;7.216;2023-05-10T09:54:11;17.83;81.25
65836;SHT30;52595;51.608;7.216;2023-05-10T09:56:37;17.46;81.65
65836;SHT30;52595;51.608;7.216;2023-05-10T09:59:05;17.34;82.47
65836;SHT30;52595;51.608;7.216;2023-05-10T10:01:31;17.43;82.14
65836;SHT30;52595;51.608;7.216;2023-05-10T10:03:57;17.08;81.50
65836;SHT30;52595;51.608;7.216;2023-05-10T10:06:23;16.67;83.36
65836;SHT30;52595;51.608;7.216;2023-05-10T10:08:50;16.40;83.31
65836;SHT30;52595;51.608;7.216;2023-05-10T10:11:16;16.06;84.61
65836;SHT30;52595;51.608;7.216;2023-05-10T10:13:42;15.83;85.76
65836;SHT30;52595;51.608;7.216;2023-05-10T10:16:09;15.81;86.42
65836;SHT30;52595;51.608;7.216;2023-05-10T10:18:36;15.68;85.82
65836;SHT30;52595;51.608;7.216;2023-05-10T10:21:07;15.57;88.18
65836;SHT30;52595;51.608;7.216;2023-05-10T10:23:34;15.15;91.09
65836;SHT30;52595;51.608;7.216;2023-05-10T10:26:01;15.08;91.27
65836;SHT30;52595;51.608;7.216;2023-05-10T10:31:41;14.98;92.01
65836;SHT30;52595;51.608;7.216;2023-05-10T10:34:11;14.98;91.98
65836;SHT30;52595;51.608;7.216;2023-05-10T10:36:46;15.15;92.04
65836;SHT30;52595;51.608;7.216;2023-05-10T10:39:12;14.94;90.70
65836;SHT30;52595;51.608;7.216;2023-05-10T10:47:00;15.39;90.55
65836;SHT30;52595;51.608;7.216;2023-05-10T10:49:26;15.17;89.68
65836;SHT30;52595;51.608;7.216;2023-05-10T10:57:28;15.34;87.88
65836;SHT30;52595;51.608;7.216;2023-05-10T11:00:25;15.42;86.78
65836;SHT30;52595;51.608;7.216;2023-05-10T11:05:24;16.00;84.96
65836;SHT30;52595;51.608;7.216;2023-05-10T11:07:53;16.02;85.14
65836;SHT30;52595;51.608;7.216;2023-05-10T11:10:22;16.16;85.36
65836;SHT30;52595;51.608;7.216;2023-05-10T11:13:08;16.29;85.41
65836;SHT30;52595;51.608;7.216;2023-05-10T11:15:38;16.52;85.09
65836;SHT30;52595;51.608;7.216;2023-05-10T11:18:20;16.33;84.81
65836;SHT30;52595;51.608;7.216;2023-05-10T11:20:59;16.27;83.91
65836;SHT30;52595;51.608;7.216;2023-05-10T11:26:08;16.14;84.09
65836;SHT30;52595;51.608;7.216;2023-05-10T11:28:40;16.14;84.48
65836;SHT30;52595;51.608;7.216;2023-05-10T11:31:06;16.06;84.08
65836;SHT30;52595;51.608;7.216;2023-05-10T11:33:49;16.50;83.59
65836;SHT30;52595;51.608;7.216;2023-05-10T11:36:27;16.68;82.93
65836;SHT30;52595;51.608;7.216;2023-05-10T11:38:53;16.78;82.54
65836;SHT30;52595;51.608;7.216;2023-05-10T11:41:20;16.84;81.16
65836;SHT30;52595;51.608;7.216;2023-05-10T11:43:52;16.92;81.34
65836;SHT30;52595;51.608;7.216;2023-05-10T11:46:21;17.49;80.64
65836;SHT30;52595;51.608;7.216;2023-05-10T11:48:50;17.19;80.54
65836;SHT30;52595;51.608;7.216;2023-05-10T11:51:20;16.78;81.71
65836;SHT30;52595;51.608;7.216;2023-05-10T11:53:46;16.80;81.91
65836;SHT30;52595;51.608;7.216;2023-05-10T11:56:11;17.75;80.60
65836;SHT30;52595;51.608;7.216;2023-05-10T11:58:38;17.92;78.90
65836;SHT30;52595;51.608;7.216;2023-05-10T12:01:05;18.10;77.66
65836;SHT30;52595;51.608;7.216;2023-05-10T12:03:31;17.83;79.26
65836;SHT30;52595;51.608;7.216;2023-05-10T12:05:58;17.83;78.70
65836;SHT30;52595;51.608;7.216;2023-05-10T12:08:25;18.10;78.13
65836;SHT30;52595;51.608;7.216;2023-05-10T12:10:52;17.75;78.25
65836;SHT30;52595;51.608;7.216;2023-05-10T12:13:19;18.02;77.60
65836;SHT30;52595;51.608;7.216;2023-05-10T12:15:45;17.78;77.38
65836;SHT30;52595;51.608;7.216;2023-05-10T12:18:12;18.33;76.24
65836;SHT30;52595;51.608;7.216;2023-05-10T12:20:38;18.36;75.74
65836;SHT30;52595;51.608;7.216;2023-05-10T12:23:04;17.49;78.50
65836;SHT30;52595;51.608;7.216;2023-05-10T12:25:32;17.34;78.95
65836;SHT30;52595;51.608;7.216;2023-05-10T12:27:59;17.63;79.03
65836;SHT30;52595;51.608;7.216;2023-05-10T12:30:29;17.63;78.53
65836;SHT30;52595;51.608;7.216;2023-05-10T12:33:03;17.12;79.65
65836;SHT30;52595;51.608;7.216;2023-05-10T12:35:32;16.84;80.14
65836;SHT30;52595;51.608;7.216;2023-05-10T12:37:58;16.77;79.96
65836;SHT30;52595;51.608;7.216;2023-05-10T12:40:24;17.19;78.84
65836;SHT30;52595;51.608;7.216;2023-05-10T12:42:50;17.11;78.51
65836;SHT30;52595;51.608;7.216;2023-05-10T12:45:17;17.04;79.75
65836;SHT30;52595;51.608;7.216;2023-05-10T12:47:43;17.00;80.37
65836;SHT30;52595;51.608;7.216;2023-05-10T12:50:09;17.35;79.64
65836;SHT30;52595;51.608;7.216;2023-05-10T12:52:34;17.28;79.67
65836;SHT30;52595;51.608;7.216;2023-05-10T12:55:00;16.91;79.86
65836;SHT30;52595;51.608;7.216;2023-05-10T12:57:26;16.94;80.31
65836;SHT30;52595;51.608;7.216;2023-05-10T12:59:52;17.03;80.25
65836;SHT30;52595;51.608;7.216;2023-05-10T13:02:18;17.05;79.58
65836;SHT30;52595;51.608;7.216;2023-05-10T13:04:44;17.11;79.39
65836;SHT30;52595;51.608;7.216;2023-05-10T13:07:10;17.48;78.67
65836;SHT30;52595;51.608;7.216;2023-05-10T13:09:35;17.73;78.33
65836;SHT30;52595;51.608;7.216;2023-05-10T13:12:01;18.03;76.78
65836;SHT30;52595;51.608;7.216;2023-05-10T13:14:27;18.14;76.76
65836;SHT30;52595;51.608;7.216;2023-05-10T13:16:52;18.38;75.61
65836;SHT30;52595;51.608;7.216;2023-05-10T13:19:18;18.14;75.59
65836;SHT30;52595;51.608;7.216;2023-05-10T13:21:44;18.65;75.32
65836;SHT30;52595;51.608;7.216;2023-05-10T13:24:10;19.04;74.18
65836;SHT30;52595;51.608;7.216;2023-05-10T13:26:36;19.80;69.96
65836;SHT30;52595;51.608;7.216;2023-05-10T13:29:02;20.61;68.72
65836;SHT30;52595;51.608;7.216;2023-05-10T13:31:27;21.38;67.38
65836;SHT30;52595;51.608;7.216;2023-05-10T13:33:53;22.30;64.75
65836;SHT30;52595;51.608;7.216;2023-05-10T13:36:18;22.49;63.31
65836;SHT30;52595;51.608;7.216;2023-05-10T13:38:43;22.75;62.95
65836;SHT30;52595;51.608;7.216;2023-05-10T13:41:09;20.91;64.83
65836;SHT30;52595;51.608;7.216;2023-05-10T13:43:35;20.18;67.58
65836;SHT30;52595;51.608;7.216;2023-05-10T13:46:01;20.09;67.33
65836;SHT30;52595;51.608;7.216;2023-05-10T13:48:26;20.59;66.58
65836;SHT30;52595;51.608;7.216;2023-05-10T13:50:52;20.45;66.42
65836;SHT30;52595;51.608;7.216;2023-05-10T13:53:17;21.51;65.49
65836;SHT30;52595;51.608;7.216;2023-05-10T13:55:43;20.96;66.24
65836;SHT30;52595;51.608;7.216;2023-05-10T13:58:08;20.63;67.44
65836;SHT30;52595;51.608;7.216;2023-05-10T14:00:34;20.51;67.77
65836;SHT30;52595;51.608;7.216;2023-05-10T14:02:59;20.85;64.82
65836;SHT30;52595;51.608;7.216;2023-05-10T14:05:25;21.15;63.16
65836;SHT30;52595;51.608;7.216;2023-05-10T14:07:50;22.07;60.39
65836;SHT30;52595;51.608;7.216;2023-05-10T14:10:16;21.46;61.47
65836;SHT30;52595;51.608;7.216;2023-05-10T14:12:41;22.79;59.68
65836;SHT30;52595;51.608;7.216;2023-05-10T14:15:07;23.00;59.45
65836;SHT30;52595;51.608;7.216;2023-05-10T14:17:33;21.66;61.58
65836;SHT30;52595;51.608;7.216;2023-05-10T14:19:58;22.34;60.80
65836;SHT30;52595;51.608;7.216;2023-05-10T14:22:24;23.00;59.06
65836;SHT30;52595;51.608;7.216;2023-05-10T14:24:49;21.77;59.78
65836;SHT30;52595;51.608;7.216;2023-05-10T14:27:15;21.10;60.63
65836;SHT30;52595;51.608;7.216;2023-05-10T14:29:41;20.27;63.97
65836;SHT30;52595;51.608;7.216;2023-05-10T14:32:06;20.48;64.01
65836;SHT30;52595;51.608;7.216;2023-05-10T14:34:32;21.67;61.64
65836;SHT30;52595;51.608;7.216;2023-05-10T14:36:57;20.23;63.37
65836;SHT30;52595;51.608;7.216;2023-05-10T14:39:23;19.38;67.22
65836;SHT30;52595;51.608;7.216;2023-05-10T14:41:48;19.32;67.99
65836;SHT30;52595;51.608;7.216;2023-05-10T14:44:14;19.35;68.67
65836;SHT30;52595;51.608;7.216;2023-05-10T14:46:40;19.36;69.77
65836;SHT30;52595;51.608;7.216;2023-05-10T14:49:07;19.38;69.43
65836;SHT30;52595;51.608;7.216;2023-05-10T14:51:32;19.36;69.59
65836;SHT30;52595;51.608;7.216;2023-05-10T14:53:57;19.42;68.78
65836;SHT30;52595;51.608;7.216;2023-05-10T14:56:23;19.55;68.82
65836;SHT30;52595;51.608;7.216;2023-05-10T14:58:49;18.89;70.69
65836;SHT30;52595;51.608;7.216;2023-05-10T15:01:15;18.96;71.62
65836;SHT30;52595;51.608;7.216;2023-05-10T15:03:40;19.19;70.09
65836;SHT30;52595;51.608;7.216;2023-05-10T15:06:06;19.16;70.88
65836;SHT30;52595;51.608;7.216;2023-05-10T15:08:31;18.91;71.94
65836;SHT30;52595;51.608;7.216;2023-05-10T15:10:56;19.04;72.15
65836;SHT30;52595;51.608;7.216;2023-05-10T15:13:22;18.20;74.58
65836;SHT30;52595;51.608;7.216;2023-05-10T15:15:47;18.03;75.34
65836;SHT30;52595;51.608;7.216;2023-05-10T15:18:13;18.57;73.84
65836;SHT30;52595;51.608;7.216;2023-05-10T15:20:38;18.67;73.22
65836;SHT30;52595;51.608;7.216;2023-05-10T15:23:03;18.29;73.61
65836;SHT30;52595;51.608;7.216;2023-05-10T15:25:29;18.18;74.04
65836;SHT30;52595;51.608;7.216;2023-05-10T15:27:54;18.23;74.71
65836;SHT30;52595;51.608;7.216;2023-05-10T15:30:20;18.30;74.48
65836;SHT30;52595;51.608;7.216;2023-05-10T15:32:45;18.16;74.99
65836;SHT30;52595;51.608;7.216;2023-05-10T15:35:11;18.43;74.73
65836;SHT30;52595;51.608;7.216;2023-05-10T15:37:37;18.54;74.38
65836;SHT30;52595;51.608;7.216;2023-05-10T15:40:03;18.54;73.66
65836;SHT30;52595;51.608;7.216;2023-05-10T15:42:32;18.00;75.32
65836;SHT30;52595;51.608;7.216;2023-05-10T15:44:58;17.76;76.32
65836;SHT30;52595;51.608;7.216;2023-05-10T15:47:26;17.45;75.96
65836;SHT30;52595;51.608;7.216;2023-05-10T15:49:52;17.18;76.71
65836;SHT30;52595;51.608;7.216;2023-05-10T15:52:18;17.29;77.23
65836;SHT30;52595;51.608;7.216;2023-05-10T15:54:45;17.38;76.01
65836;SHT30;52595;51.608;7.216;2023-05-10T15:57:10;17.46;75.98
65836;SHT30;52595;51.608;7.216;2023-05-10T15:59:35;17.59;75.25
65836;SHT30;52595;51.608;7.216;2023-05-10T16:02:02;17.62;75.02
65836;SHT30;52595;51.608;7.216;2023-05-10T16:04:28;17.68;75.33
65836;SHT30;52595;51.608;7.216;2023-05-10T16:06:54;17.70;74.89
65836;SHT30;52595;51.608;7.216;2023-05-10T16:09:20;17.65;75.08